sensor_id;sensor_type;location;lat;lon;timestamp;temperature;humidity
11009;DHT22;5557;51.670;7.788;2023-05-02T00:02:19;11.40;99.70
11009;DHT22;5557;51.670;7.788;2023-05-02T00:04:46;11.40;99.90
11009;DHT22;5557;51.670;7.788;2023-05-02T00:07:13;11.30;99.90
11009;DHT22;5557;51.670;7.788;2023-05-02T00:09:40;11.30;99.90
11009;DHT22;5557;51.670;7.788;2023-05-02T00:12:07;11.20;99.90
11009;DHT22;5557;51.670;7.788;2023-05-02T00:14:34;11.20;99.90
11009;DHT22;5557;51.670;7.788;2023-05-02T00:17:01;11.10;99.90
11009;DHT22;5557;51.670;7.788;2023-05-02T00:19:28;11.10;99.90
11009;DHT22;5557;51.670;7.788;2023-05-02T00:21:55;11.00;99.90
11009;DHT22;5557;51.670;7.788;2023-05-02T00:24:22;11.00;99.90
11009;DHT22;5557;51.670;7.788;2023-05-02T00:26:49;11.00;99.90
11009;DHT22;5557;51.670;7.788;2023-05-02T00:29:16;11.00;99.90
11009;DHT22;5557;51.670;7.788;2023-05-02T00:31:43;11.00;99.90
11009;DHT22;5557;51.670;7.788;2023-05-02T00:34:10;11.00;99.90
11009;DHT22;5557;51.670;7.788;2023-05-02T00:36:37;11.10;99.90
11009;DHT22;5557;51.670;7.788;2023-05-02T00:39:04;11.10;99.90
11009;DHT22;5557;51.670;7.788;2023-05-02T00:41:31;11.10;99.90
11009;DHT22;5557;51.670;7.788;2023-05-02T00:43:58;11.10;99.90
11009;DHT22;5557;51.670;7.788;2023-05-02T00:46:25;11.10;99.90
11009;DHT22;5557;51.670;7.788;2023-05-02T00:48:52;11.10;99.90
11009;DHT22;5557;51.670;7.788;2023-05-02T00:51:19;11.10;99.90
11009;DHT22;5557;51.670;7.788;2023-05-02T00:53:46;11.10;99.90
11009;DHT22;5557;51.670;7.788;2023-05-02T00:56:13;11.10;99.90
11009;DHT22;5557;51.670;7.788;2023-05-02T00:58:41;11.10;99.90
11009;DHT22;5557;51.670;7.788;2023-05-02T01:01:35;11.10;99.90
11009;DHT22;5557;51.670;7.788;2023-05-02T01:04:39;11.00;99.90
11009;DHT22;5557;51.670;7.788;2023-05-02T01:07:14;11.00;99.90
11009;DHT22;5557;51.670;7.788;2023-05-02T01:13:23;10.90;99.90
11009;DHT22;5557;51.670;7.788;2023-05-02T01:15:53;10.90;99.90
11009;DHT22;5557;51.670;7.788;2023-05-02T01:18:25;10.80;99.90
11009;DHT22;5557;51.670;7.788;2023-05-02T01:21:00;10.80;99.90
11009;DHT22;5557;51.670;7.788;2023-05-02T01:24:09;10.80;99.90
11009;DHT22;5557;51.670;7.788;2023-05-02T01:26:57;10.80;99.90
11009;DHT22;5557;51.670;7.788;2023-05-02T01:29:26;10.80;99.90
11009;DHT22;5557;51.670;7.788;2023-05-02T01:31:55;10.80;99.90
11009;DHT22;5557;51.670;7.788;2023-05-02T01:34:24;10.80;99.90
11009;DHT22;5557;51.670;7.788;2023-05-02T01:36:53;10.80;99.90
11009;DHT22;5557;51.670;7.788;2023-05-02T01:39:24;10.70;99.90
11009;DHT22;5557;51.670;7.788;2023-05-02T01:41:55;10.70;99.90
11009;DHT22;5557;51.670;7.788;2023-05-02T01:44:24;10.70;99.90
11009;DHT22;5557;51.670;7.788;2023-05-02T01:46:54;10.70;99.90
11009;DHT22;5557;51.670;7.788;2023-05-02T01:49:23;10.60;99.90
11009;DHT22;5557;51.670;7.788;2023-05-02T01:51:51;10.50;99.90
11009;DHT22;5557;51.670;7.788;2023-05-02T01:54:21;10.40;99.90
11009;DHT22;5557;51.670;7.788;2023-05-02T01:56:50;10.30;99.90
11009;DHT22;5557;51.670;7.788;2023-05-02T01:59:19;10.20;99.90
11009;DHT22;5557;51.670;7.788;2023-05-02T02:01:49;10.20;99.90
11009;DHT22;5557;51.670;7.788;2023-05-02T02:04:18;10.20;99.90
11009;DHT22;5557;51.670;7.788;2023-05-02T02:06:51;10.20;99.90
11009;DHT22;5557;51.670;7.788;2023-05-02T02:09:20;10.20;99.90
11009;DHT22;5557;51.670;7.788;2023-05-02T02:11:52;10.20;99.90
11009;DHT22;5557;51.670;7.788;2023-05-02T02:14:24;10.30;99.90
11009;DHT22;5557;51.670;7.788;2023-05-02T02:16:54;10.30;99.90
11009;DHT22;5557;51.670;7.788;2023-05-02T02:19:22;10.30;99.90
11009;DHT22;5557;51.670;7.788;2023-05-02T02:21:50;10.30;99.90
11009;DHT22;5557;51.670;7.788;2023-05-02T02:24:21;10.30;99.90
11009;DHT22;5557;51.670;7.788;2023-05-02T02:26:48;10.30;99.90
11009;DHT22;5557;51.670;7.788;2023-05-02T02:29:16;10.30;99.90
11009;DHT22;5557;51.670;7.788;2023-05-02T02:31:43;10.30;99.90
11009;DHT22;5557;51.670;7.788;2023-05-02T02:34:10;10.30;99.90
11009;DHT22;5557;51.670;7.788;2023-05-02T02:36:56;10.30;99.90
11009;DHT22;5557;51.670;7.788;2023-05-02T02:40:12;10.30;99.90
11009;DHT22;5557;51.670;7.788;2023-05-02T02:43:06;10.20;99.90
11009;DHT22;5557;51.670;7.788;2023-05-02T02:46:01;10.30;99.90
11009;DHT22;5557;51.670;7.788;2023-05-02T02:48:47;10.20;99.90
11009;DHT22;5557;51.670;7.788;2023-05-02T02:54:34;10.20;99.90
11009;DHT22;5557;51.670;7.788;2023-05-02T02:57:10;10.20;99.90
11009;DHT22;5557;51.670;7.788;2023-05-02T03:00:06;10.20;99.90
11009;DHT22;5557;51.670;7.788;2023-05-02T03:02:34;10.20;99.90
11009;DHT22;5557;51.670;7.788;2023-05-02T03:05:03;10.20;99.90
11009;DHT22;5557;51.670;7.788;2023-05-02T03:07:31;10.20;99.90
11009;DHT22;5557;51.670;7.788;2023-05-02T03:10:02;10.20;99.90
11009;DHT22;5557;51.670;7.788;2023-05-02T03:12:29;10.20;99.90
11009;DHT22;5557;51.670;7.788;2023-05-02T03:15:08;10.10;99.90
11009;DHT22;5557;51.670;7.788;2023-05-02T03:17:39;10.10;99.90
11009;DHT22;5557;51.670;7.788;2023-05-02T03:20:07;10.20;99.90
11009;DHT22;5557;51.670;7.788;2023-05-02T03:22:34;10.20;99.90
11009;DHT22;5557;51.670;7.788;2023-05-02T03:25:01;10.10;99.90
11009;DHT22;5557;51.670;7.788;2023-05-02T03:27:28;10.10;99.90
11009;DHT22;5557;51.670;7.788;2023-05-02T03:29:55;10.00;99.90
11009;DHT22;5557;51.670;7.788;2023-05-02T03:32:21;10.00;99.90
11009;DHT22;5557;51.670;7.788;2023-05-02T03:34:48;10.00;99.90
11009;DHT22;5557;51.670;7.788;2023-05-02T03:37:15;10.00;99.90
11009;DHT22;5557;51.670;7.788;2023-05-02T03:39:43;10.10;99.90
11009;DHT22;5557;51.670;7.788;2023-05-02T03:42:10;10.10;99.90
11009;DHT22;5557;51.670;7.788;2023-05-02T03:44:37;10.10;99.90
11009;DHT22;5557;51.670;7.788;2023-05-02T03:47:04;10.20;99.90
11009;DHT22;5557;51.670;7.788;2023-05-02T03:49:33;10.20;99.90
11009;DHT22;5557;51.670;7.788;2023-05-02T03:52:00;10.20;99.90
11009;DHT22;5557;51.670;7.788;2023-05-02T03:54:31;10.20;99.90
11009;DHT22;5557;51.670;7.788;2023-05-02T03:56:58;10.20;99.90
11009;DHT22;5557;51.670;7.788;2023-05-02T03:59:25;10.20;99.90
11009;DHT22;5557;51.670;7.788;2023-05-02T04:01:53;10.20;99.90
11009;DHT22;5557;51.670;7.788;2023-05-02T04:04:20;10.20;99.90
11009;DHT22;5557;51.670;7.788;2023-05-02T04:06:47;10.20;99.90
11009;DHT22;5557;51.670;7.788;2023-05-02T04:09:14;10.20;99.90
11009;DHT22;5557;51.670;7.788;2023-05-02T04:11:41;10.30;99.90
11009;DHT22;5557;51.670;7.788;2023-05-02T04:14:08;10.30;99.90
11009;DHT22;5557;51.670;7.788;2023-05-02T04:16:34;10.30;99.90
11009;DHT22;5557;51.670;7.788;2023-05-02T04:19:02;10.30;99.90
11009;DHT22;5557;51.670;7.788;2023-05-02T04:21:28;10.30;99.90
11009;DHT22;5557;51.670;7.788;2023-05-02T04:23:55;10.30;99.90
11009;DHT22;5557;51.670;7.788;2023-05-02T04:26:22;10.30;99.90
11009;DHT22;5557;51.670;7.788;2023-05-02T04:28:49;10.30;99.90
11009;DHT22;5557;51.670;7.788;2023-05-02T04:31:16;10.30;99.90
11009;DHT22;5557;51.670;7.788;2023-05-02T04:33:43;10.30;99.90
11009;DHT22;5557;51.670;7.788;2023-05-02T04:36:11;10.30;99.90
11009;DHT22;5557;51.670;7.788;2023-05-02T04:38:38;10.30;99.90
11009;DHT22;5557;51.670;7.788;2023-05-02T04:41:05;10.30;99.90
11009;DHT22;5557;51.670;7.788;2023-05-02T04:43:35;10.30;99.90
11009;DHT22;5557;51.670;7.788;2023-05-02T04:46:02;10.30;99.90
11009;DHT22;5557;51.670;7.788;2023-05-02T04:48:29;10.30;99.90
11009;DHT22;5557;51.670;7.788;2023-05-02T04:50:55;10.30;99.90
11009;DHT22;5557;51.670;7.788;2023-05-02T04:53:22;10.30;99.90
11009;DHT22;5557;51.670;7.788;2023-05-02T04:55:49;10.30;99.90
11009;DHT22;5557;51.670;7.788;2023-05-02T04:58:16;10.30;99.90
11009;DHT22;5557;51.670;7.788;2023-05-02T05:00:43;10.30;99.90
11009;DHT22;5557;51.670;7.788;2023-05-02T05:03:10;10.30;99.90
11009;DHT22;5557;51.670;7.788;2023-05-02T05:05:37;10.40;99.90
11009;DHT22;5557;51.670;7.788;2023-05-02T05:08:04;10.40;99.90
11009;DHT22;5557;51.670;7.788;2023-05-02T05:10:31;10.40;99.90
11009;DHT22;5557;51.670;7.788;2023-05-02T05:12:58;10.40;99.90
11009;DHT22;5557;51.670;7.788;2023-05-02T05:15:25;10.40;99.90
11009;DHT22;5557;51.670;7.788;2023-05-02T05:17:53;10.40;99.90
11009;DHT22;5557;51.670;7.788;2023-05-02T05:20:20;10.50;99.90
11009;DHT22;5557;51.670;7.788;2023-05-02T05:22:47;10.50;99.90
11009;DHT22;5557;51.670;7.788;2023-05-02T05:25:14;10.50;99.90
11009;DHT22;5557;51.670;7.788;2023-05-02T05:27:41;10.50;99.90
11009;DHT22;5557;51.670;7.788;2023-05-02T05:30:09;10.50;99.90
11009;DHT22;5557;51.670;7.788;2023-05-02T05:32:36;10.50;99.90
11009;DHT22;5557;51.670;7.788;2023-05-02T05:35:03;10.50;99.90
11009;DHT22;5557;51.670;7.788;2023-05-02T05:37:30;10.50;99.90
11009;DHT22;5557;51.670;7.788;2023-05-02T05:39:57;10.50;99.90
11009;DHT22;5557;51.670;7.788;2023-05-02T05:42:25;10.50;99.90
11009;DHT22;5557;51.670;7.788;2023-05-02T05:44:52;10.40;99.90
11009;DHT22;5557;51.670;7.788;2023-05-02T05:47:20;10.40;99.90
11009;DHT22;5557;51.670;7.788;2023-05-02T05:49:54;10.30;99.90
11009;DHT22;5557;51.670;7.788;2023-05-02T05:52:21;10.20;99.90
11009;DHT22;5557;51.670;7.788;2023-05-02T05:54:48;10.10;99.90
11009;DHT22;5557;51.670;7.788;2023-05-02T05:57:15;10.10;99.90
11009;DHT22;5557;51.670;7.788;2023-05-02T05:59:42;10.00;99.90
11009;DHT22;5557;51.670;7.788;2023-05-02T06:02:09;9.90;99.90
11009;DHT22;5557;51.670;7.788;2023-05-02T06:04:36;9.90;99.90
11009;DHT22;5557;51.670;7.788;2023-05-02T06:07:03;9.90;99.90
11009;DHT22;5557;51.670;7.788;2023-05-02T06:09:30;9.90;99.90
11009;DHT22;5557;51.670;7.788;2023-05-02T06:11:57;9.80;99.90
11009;DHT22;5557;51.670;7.788;2023-05-02T06:14:24;9.80;99.90
11009;DHT22;5557;51.670;7.788;2023-05-02T06:16:51;9.90;99.90
11009;DHT22;5557;51.670;7.788;2023-05-02T06:19:18;9.90;99.90
11009;DHT22;5557;51.670;7.788;2023-05-02T06:21:45;9.90;99.90
11009;DHT22;5557;51.670;7.788;2023-05-02T06:24:12;10.00;99.90
11009;DHT22;5557;51.670;7.788;2023-05-02T06:26:39;10.00;99.90
11009;DHT22;5557;51.670;7.788;2023-05-02T06:29:06;10.00;99.90
11009;DHT22;5557;51.670;7.788;2023-05-02T06:31:33;10.00;99.90
11009;DHT22;5557;51.670;7.788;2023-05-02T06:34:00;10.00;99.90
11009;DHT22;5557;51.670;7.788;2023-05-02T06:36:27;10.10;99.90
11009;DHT22;5557;51.670;7.788;2023-05-02T06:38:54;10.20;99.90
11009;DHT22;5557;51.670;7.788;2023-05-02T06:41:21;10.40;99.90
11009;DHT22;5557;51.670;7.788;2023-05-02T06:43:49;10.50;99.90
11009;DHT22;5557;51.670;7.788;2023-05-02T06:46:16;10.50;99.90
11009;DHT22;5557;51.670;7.788;2023-05-02T06:48:44;10.50;99.90
11009;DHT22;5557;51.670;7.788;2023-05-02T06:51:13;10.50;99.90
11009;DHT22;5557;51.670;7.788;2023-05-02T06:53:40;10.60;99.90
11009;DHT22;5557;51.670;7.788;2023-05-02T06:56:07;10.60;98.90
11009;DHT22;5557;51.670;7.788;2023-05-02T06:58:34;10.70;98.70
11009;DHT22;5557;51.670;7.788;2023-05-02T07:01:01;10.80;95.80
11009;DHT22;5557;51.670;7.788;2023-05-02T07:03:28;11.00;92.50
11009;DHT22;5557;51.670;7.788;2023-05-02T07:05:55;11.20;91.10
11009;DHT22;5557;51.670;7.788;2023-05-02T07:08:22;11.40;84.10
11009;DHT22;5557;51.670;7.788;2023-05-02T07:10:49;11.50;77.70
11009;DHT22;5557;51.670;7.788;2023-05-02T07:13:16;11.50;67.20
11009;DHT22;5557;51.670;7.788;2023-05-02T07:15:43;11.50;62.80
11009;DHT22;5557;51.670;7.788;2023-05-02T07:18:10;11.40;58.60
11009;DHT22;5557;51.670;7.788;2023-05-02T07:20:37;11.40;56.10
11009;DHT22;5557;51.670;7.788;2023-05-02T07:23:05;11.30;59.60
11009;DHT22;5557;51.670;7.788;2023-05-02T07:25:32;11.20;58.10
11009;DHT22;5557;51.670;7.788;2023-05-02T07:27:59;10.70;61.40
11009;DHT22;5557;51.670;7.788;2023-05-02T07:30:27;10.10;80.30
11009;DHT22;5557;51.670;7.788;2023-05-02T07:32:54;9.70;94.10
11009;DHT22;5557;51.670;7.788;2023-05-02T07:35:21;9.40;99.90
11009;DHT22;5557;51.670;7.788;2023-05-02T07:37:48;9.10;99.90
11009;DHT22;5557;51.670;7.788;2023-05-02T07:40:15;8.90;99.90
11009;DHT22;5557;51.670;7.788;2023-05-02T07:42:42;8.80;99.90
11009;DHT22;5557;51.670;7.788;2023-05-02T07:45:10;8.60;99.90
11009;DHT22;5557;51.670;7.788;2023-05-02T07:47:37;8.50;99.90
11009;DHT22;5557;51.670;7.788;2023-05-02T07:50:04;8.50;99.90
11009;DHT22;5557;51.670;7.788;2023-05-02T07:52:32;8.40;99.90
11009;DHT22;5557;51.670;7.788;2023-05-02T07:54:59;8.40;99.90
11009;DHT22;5557;51.670;7.788;2023-05-02T07:57:26;8.20;99.90
11009;DHT22;5557;51.670;7.788;2023-05-02T07:59:53;8.20;99.90
11009;DHT22;5557;51.670;7.788;2023-05-02T08:02:22;8.20;99.90
11009;DHT22;5557;51.670;7.788;2023-05-02T08:04:50;8.30;99.90
11009;DHT22;5557;51.670;7.788;2023-05-02T08:07:17;8.40;99.90
11009;DHT22;5557;51.670;7.788;2023-05-02T08:09:44;8.30;99.90
11009;DHT22;5557;51.670;7.788;2023-05-02T08:12:11;8.30;99.90
11009;DHT22;5557;51.670;7.788;2023-05-02T08:14:38;8.30;99.90
11009;DHT22;5557;51.670;7.788;2023-05-02T08:17:05;8.30;99.90
11009;DHT22;5557;51.670;7.788;2023-05-02T08:19:32;8.40;99.90
11009;DHT22;5557;51.670;7.788;2023-05-02T08:22:00;8.40;99.90
11009;DHT22;5557;51.670;7.788;2023-05-02T08:24:26;8.50;99.90
11009;DHT22;5557;51.670;7.788;2023-05-02T08:26:53;8.60;99.90
11009;DHT22;5557;51.670;7.788;2023-05-02T08:29:21;8.70;99.90
11009;DHT22;5557;51.670;7.788;2023-05-02T08:31:48;8.70;99.90
11009;DHT22;5557;51.670;7.788;2023-05-02T08:34:16;8.60;98.80
11009;DHT22;5557;51.670;7.788;2023-05-02T08:36:43;8.80;99.90
11009;DHT22;5557;51.670;7.788;2023-05-02T08:39:10;8.80;98.80
11009;DHT22;5557;51.670;7.788;2023-05-02T08:41:37;8.80;96.10
11009;DHT22;5557;51.670;7.788;2023-05-02T08:44:05;8.80;94.70
11009;DHT22;5557;51.670;7.788;2023-05-02T08:46:35;8.70;93.70
11009;DHT22;5557;51.670;7.788;2023-05-02T08:49:05;8.80;95.20
11009;DHT22;5557;51.670;7.788;2023-05-02T08:51:34;8.80;95.00
11009;DHT22;5557;51.670;7.788;2023-05-02T08:54:02;8.70;96.00
11009;DHT22;5557;51.670;7.788;2023-05-02T08:56:30;8.70;91.50
11009;DHT22;5557;51.670;7.788;2023-05-02T08:58:58;8.70;92.30
11009;DHT22;5557;51.670;7.788;2023-05-02T09:01:29;8.70;91.80
11009;DHT22;5557;51.670;7.788;2023-05-02T09:03:56;8.70;89.20
11009;DHT22;5557;51.670;7.788;2023-05-02T09:06:25;8.70;89.80
11009;DHT22;5557;51.670;7.788;2023-05-02T09:08:53;8.60;90.00
11009;DHT22;5557;51.670;7.788;2023-05-02T09:11:20;8.50;89.00
11009;DHT22;5557;51.670;7.788;2023-05-02T09:13:48;8.50;79.80
11009;DHT22;5557;51.670;7.788;2023-05-02T09:16:19;8.60;77.90
11009;DHT22;5557;51.670;7.788;2023-05-02T09:18:50;8.80;65.10
11009;DHT22;5557;51.670;7.788;2023-05-02T09:21:20;9.00;56.20
11009;DHT22;5557;51.670;7.788;2023-05-02T09:23:55;9.50;55.50
11009;DHT22;5557;51.670;7.788;2023-05-02T09:26:29;9.70;47.60
11009;DHT22;5557;51.670;7.788;2023-05-02T09:29:03;10.00;35.40
11009;DHT22;5557;51.670;7.788;2023-05-02T09:31:32;10.10;29.40
11009;DHT22;5557;51.670;7.788;2023-05-02T09:34:22;10.20;23.30
11009;DHT22;5557;51.670;7.788;2023-05-02T09:36:50;10.30;17.90
11009;DHT22;5557;51.670;7.788;2023-05-02T09:39:27;10.20;18.40
11009;DHT22;5557;51.670;7.788;2023-05-02T09:41:58;10.20;19.90
11009;DHT22;5557;51.670;7.788;2023-05-02T09:44:35;10.10;17.10
11009;DHT22;5557;51.670;7.788;2023-05-02T09:47:02;9.90;20.30
11009;DHT22;5557;51.670;7.788;2023-05-02T09:49:42;9.70;25.20
11009;DHT22;5557;51.670;7.788;2023-05-02T09:52:16;9.60;26.00
11009;DHT22;5557;51.670;7.788;2023-05-02T09:54:43;9.60;26.40
11009;DHT22;5557;51.670;7.788;2023-05-02T09:57:12;9.80;26.40
11009;DHT22;5557;51.670;7.788;2023-05-02T09:59:39;10.10;22.80
11009;DHT22;5557;51.670;7.788;2023-05-02T10:02:07;10.60;18.30
11009;DHT22;5557;51.670;7.788;2023-05-02T10:04:38;10.80;14.10
11009;DHT22;5557;51.670;7.788;2023-05-02T10:07:06;11.10;9.40
11009;DHT22;5557;51.670;7.788;2023-05-02T10:09:40;11.40;2.90
11009;DHT22;5557;51.670;7.788;2023-05-02T10:12:08;11.60;1.00
11009;DHT22;5557;51.670;7.788;2023-05-02T10:14:49;11.80;1.00
11009;DHT22;5557;51.670;7.788;2023-05-02T10:17:27;12.10;1.00
11009;DHT22;5557;51.670;7.788;2023-05-02T10:20:00;12.00;1.00
11009;DHT22;5557;51.670;7.788;2023-05-02T10:22:29;11.80;1.00
11009;DHT22;5557;51.670;7.788;2023-05-02T10:24:58;11.50;1.00
11009;DHT22;5557;51.670;7.788;2023-05-02T10:27:26;11.40;1.00
11009;DHT22;5557;51.670;7.788;2023-05-02T10:29:59;11.20;1.00
11009;DHT22;5557;51.670;7.788;2023-05-02T10:32:28;10.90;1.00
11009;DHT22;5557;51.670;7.788;2023-05-02T10:35:03;10.80;1.00
11009;DHT22;5557;51.670;7.788;2023-05-02T10:37:32;10.80;1.00
11009;DHT22;5557;51.670;7.788;2023-05-02T10:39:59;10.90;1.00
11009;DHT22;5557;51.670;7.788;2023-05-02T10:42:27;11.10;1.00
11009;DHT22;5557;51.670;7.788;2023-05-02T10:44:55;11.30;1.00
11009;DHT22;5557;51.670;7.788;2023-05-02T10:47:25;11.30;1.00
11009;DHT22;5557;51.670;7.788;2023-05-02T10:52:34;11.60;1.00
11009;DHT22;5557;51.670;7.788;2023-05-02T10:55:31;11.80;1.00
11009;DHT22;5557;51.670;7.788;2023-05-02T10:58:19;12.00;1.00
11009;DHT22;5557;51.670;7.788;2023-05-02T11:00:46;12.10;1.00
11009;DHT22;5557;51.670;7.788;2023-05-02T11:03:14;12.30;1.00
11009;DHT22;5557;51.670;7.788;2023-05-02T11:06:04;12.50;1.00
11009;DHT22;5557;51.670;7.788;2023-05-02T11:08:34;12.70;1.00
11009;DHT22;5557;51.670;7.788;2023-05-02T11:11:36;12.80;1.00
11009;DHT22;5557;51.670;7.788;2023-05-02T11:14:03;13.00;1.00
11009;DHT22;5557;51.670;7.788;2023-05-02T11:20:27;13.30;1.00
11009;DHT22;5557;51.670;7.788;2023-05-02T11:22:55;13.30;1.00
11009;DHT22;5557;51.670;7.788;2023-05-02T11:25:33;13.30;1.00
11009;DHT22;5557;51.670;7.788;2023-05-02T11:28:02;13.20;1.00
11009;DHT22;5557;51.670;7.788;2023-05-02T11:30:43;13.20;1.00
11009;DHT22;5557;51.670;7.788;2023-05-02T11:33:12;13.10;1.00
11009;DHT22;5557;51.670;7.788;2023-05-02T11:35:44;13.10;1.00
11009;DHT22;5557;51.670;7.788;2023-05-02T11:38:14;13.20;1.00
11009;DHT22;5557;51.670;7.788;2023-05-02T11:40:56;13.40;1.00
11009;DHT22;5557;51.670;7.788;2023-05-02T11:43:27;13.50;1.00
11009;DHT22;5557;51.670;7.788;2023-05-02T11:45:58;13.40;1.00
11009;DHT22;5557;51.670;7.788;2023-05-02T11:48:26;13.00;1.00
11009;DHT22;5557;51.670;7.788;2023-05-02T11:51:02;12.70;1.00
11009;DHT22;5557;51.670;7.788;2023-05-02T11:53:31;12.50;1.00
11009;DHT22;5557;51.670;7.788;2023-05-02T11:56:03;12.40;1.00
11009;DHT22;5557;51.670;7.788;2023-05-02T11:58:32;12.30;1.00
11009;DHT22;5557;51.670;7.788;2023-05-02T12:01:15;12.30;1.00
11009;DHT22;5557;51.670;7.788;2023-05-02T12:03:43;12.40;1.00
11009;DHT22;5557;51.670;7.788;2023-05-02T12:06:12;12.50;1.00
11009;DHT22;5557;51.670;7.788;2023-05-02T12:08:42;12.60;1.00
11009;DHT22;5557;51.670;7.788;2023-05-02T12:11:13;12.70;1.00
11009;DHT22;5557;51.670;7.788;2023-05-02T12:13:45;13.00;1.00
11009;DHT22;5557;51.670;7.788;2023-05-02T12:16:12;13.30;1.00
11009;DHT22;5557;51.670;7.788;2023-05-02T12:18:40;13.50;1.00
11009;DHT22;5557;51.670;7.788;2023-05-02T12:21:07;13.70;1.00
11009;DHT22;5557;51.670;7.788;2023-05-02T12:23:34;13.50;1.00
11009;DHT22;5557;51.670;7.788;2023-05-02T12:26:20;13.40;1.00
11009;DHT22;5557;51.670;7.788;2023-05-02T12:28:52;13.30;1.00
11009;DHT22;5557;51.670;7.788;2023-05-02T12:31:24;13.30;1.00
11009;DHT22;5557;51.670;7.788;2023-05-02T12:33:51;13.40;1.00
11009;DHT22;5557;51.670;7.788;2023-05-02T12:36:23;13.50;1.00
11009;DHT22;5557;51.670;7.788;2023-05-02T12:38:58;13.50;1.00
11009;DHT22;5557;51.670;7.788;2023-05-02T12:41:35;13.40;1.00
11009;DHT22;5557;51.670;7.788;2023-05-02T12:44:06;13.30;1.00
11009;DHT22;5557;51.670;7.788;2023-05-02T12:46:33;13.20;1.00
11009;DHT22;5557;51.670;7.788;2023-05-02T12:49:05;13.40;1.00
11009;DHT22;5557;51.670;7.788;2023-05-02T12:51:34;13.30;1.00
11009;DHT22;5557;51.670;7.788;2023-05-02T12:54:02;13.30;1.00
11009;DHT22;5557;51.670;7.788;2023-05-02T12:56:29;13.50;1.00
11009;DHT22;5557;51.670;7.788;2023-05-02T12:59:00;13.60;1.00
11009;DHT22;5557;51.670;7.788;2023-05-02T13:01:31;13.90;1.00
11009;DHT22;5557;51.670;7.788;2023-05-02T13:03:59;14.10;1.00
11009;DHT22;5557;51.670;7.788;2023-05-02T13:06:26;13.90;1.00
11009;DHT22;5557;51.670;7.788;2023-05-02T13:08:53;13.90;1.00
11009;DHT22;5557;51.670;7.788;2023-05-02T13:11:20;13.70;1.00
11009;DHT22;5557;51.670;7.788;2023-05-02T13:13:47;13.60;1.00
11009;DHT22;5557;51.670;7.788;2023-05-02T13:16:14;13.80;1.00
11009;DHT22;5557;51.670;7.788;2023-05-02T13:18:41;13.80;1.00
11009;DHT22;5557;51.670;7.788;2023-05-02T13:21:11;13.70;1.00
11009;DHT22;5557;51.670;7.788;2023-05-02T13:23:38;13.90;1.00
11009;DHT22;5557;51.670;7.788;2023-05-02T13:26:05;13.80;1.00
11009;DHT22;5557;51.670;7.788;2023-05-02T13:28:32;13.50;1.00
11009;DHT22;5557;51.670;7.788;2023-05-02T13:31:01;13.40;1.00
11009;DHT22;5557;51.670;7.788;2023-05-02T13:33:28;13.40;1.00
11009;DHT22;5557;51.670;7.788;2023-05-02T13:35:55;13.40;1.00
11009;DHT22;5557;51.670;7.788;2023-05-02T13:38:22;13.10;1.00
11009;DHT22;5557;51.670;7.788;2023-05-02T13:40:49;13.00;1.00
11009;DHT22;5557;51.670;7.788;2023-05-02T13:43:16;12.90;1.00
11009;DHT22;5557;51.670;7.788;2023-05-02T13:45:43;13.00;1.00
11009;DHT22;5557;51.670;7.788;2023-05-02T13:48:10;13.00;1.00
11009;DHT22;5557;51.670;7.788;2023-05-02T13:50:37;13.00;1.00
11009;DHT22;5557;51.670;7.788;2023-05-02T13:53:04;13.20;1.00
11009;DHT22;5557;51.670;7.788;2023-05-02T13:55:31;13.20;1.00
11009;DHT22;5557;51.670;7.788;2023-05-02T13:57:58;13.10;1.00
11009;DHT22;5557;51.670;7.788;2023-05-02T14:00:25;12.90;1.00
11009;DHT22;5557;51.670;7.788;2023-05-02T14:02:54;12.90;1.00
11009;DHT22;5557;51.670;7.788;2023-05-02T14:05:21;12.80;1.00
11009;DHT22;5557;51.670;7.788;2023-05-02T14:07:48;12.70;1.00
11009;DHT22;5557;51.670;7.788;2023-05-02T14:10:15;12.70;1.00
11009;DHT22;5557;51.670;7.788;2023-05-02T14:12:42;12.60;1.00
11009;DHT22;5557;51.670;7.788;2023-05-02T14:15:10;12.60;1.00
11009;DHT22;5557;51.670;7.788;2023-05-02T14:17:37;12.70;1.00
11009;DHT22;5557;51.670;7.788;2023-05-02T14:20:05;12.90;1.00
11009;DHT22;5557;51.670;7.788;2023-05-02T14:22:33;12.80;1.00
11009;DHT22;5557;51.670;7.788;2023-05-02T14:25:00;12.80;1.00
11009;DHT22;5557;51.670;7.788;2023-05-02T14:27:27;12.70;1.00
11009;DHT22;5557;51.670;7.788;2023-05-02T14:29:54;12.60;1.00
11009;DHT22;5557;51.670;7.788;2023-05-02T14:32:21;12.70;1.00
11009;DHT22;5557;51.670;7.788;2023-05-02T14:34:48;12.70;1.00
11009;DHT22;5557;51.670;7.788;2023-05-02T14:37:15;12.60;1.00
11009;DHT22;5557;51.670;7.788;2023-05-02T14:39:42;12.40;1.00
11009;DHT22;5557;51.670;7.788;2023-05-02T14:42:13;12.30;1.00
11009;DHT22;5557;51.670;7.788;2023-05-02T14:44:40;12.20;1.00
11009;DHT22;5557;51.670;7.788;2023-05-02T14:47:07;12.20;1.00
11009;DHT22;5557;51.670;7.788;2023-05-02T14:49:34;12.10;1.00
11009;DHT22;5557;51.670;7.788;2023-05-02T14:52:02;12.00;1.00
11009;DHT22;5557;51.670;7.788;2023-05-02T14:54:29;12.00;1.00
11009;DHT22;5557;51.670;7.788;2023-05-02T14:56:56;12.00;1.00
11009;DHT22;5557;51.670;7.788;2023-05-02T14:59:24;12.00;1.00
11009;DHT22;5557;51.670;7.788;2023-05-02T15:01:53;12.10;1.00
11009;DHT22;5557;51.670;7.788;2023-05-02T15:04:20;12.30;1.00
11009;DHT22;5557;51.670;7.788;2023-05-02T15:06:48;12.30;1.00
11009;DHT22;5557;51.670;7.788;2023-05-02T15:09:15;12.30;1.00
11009;DHT22;5557;51.670;7.788;2023-05-02T15:11:43;12.30;1.00
11009;DHT22;5557;51.670;7.788;2023-05-02T15:14:10;12.30;1.00
11009;DHT22;5557;51.670;7.788;2023-05-02T15:16:37;12.40;1.00
11009;DHT22;5557;51.670;7.788;2023-05-02T15:19:05;12.40;1.00
11009;DHT22;5557;51.670;7.788;2023-05-02T15:21:32;12.40;1.00
11009;DHT22;5557;51.670;7.788;2023-05-02T15:24:01;12.40;1.00
11009;DHT22;5557;51.670;7.788;2023-05-02T15:26:28;12.50;1.00
11009;DHT22;5557;51.670;7.788;2023-05-02T15:28:55;12.70;1.00
11009;DHT22;5557;51.670;7.788;2023-05-02T15:31:23;12.70;1.00
11009;DHT22;5557;51.670;7.788;2023-05-02T15:33:50;12.80;1.00
11009;DHT22;5557;51.670;7.788;2023-05-02T15:36:17;12.90;1.00
11009;DHT22;5557;51.670;7.788;2023-05-02T15:38:44;12.80;1.00
11009;DHT22;5557;51.670;7.788;2023-05-02T15:41:11;12.60;1.00
11009;DHT22;5557;51.670;7.788;2023-05-02T15:43:38;12.60;1.00
11009;DHT22;5557;51.670;7.788;2023-05-02T15:46:05;12.40;1.00
11009;DHT22;5557;51.670;7.788;2023-05-02T15:48:33;12.30;1.00
11009;DHT22;5557;51.670;7.788;2023-05-02T15:51:01;12.30;1.00
11009;DHT22;5557;51.670;7.788;2023-05-02T15:53:28;12.40;1.00
11009;DHT22;5557;51.670;7.788;2023-05-02T15:55:56;12.50;1.00
11009;DHT22;5557;51.670;7.788;2023-05-02T15:58:23;12.70;1.00
11009;DHT22;5557;51.670;7.788;2023-05-02T16:00:49;12.70;1.00
11009;DHT22;5557;51.670;7.788;2023-05-02T16:03:18;12.70;1.00
11009;DHT22;5557;51.670;7.788;2023-05-02T16:05:45;12.70;1.00
11009;DHT22;5557;51.670;7.788;2023-05-02T16:08:12;12.70;1.00
11009;DHT22;5557;51.670;7.788;2023-05-02T16:10:39;12.90;1.00
11009;DHT22;5557;51.670;7.788;2023-05-02T16:13:08;13.00;1.00
11009;DHT22;5557;51.670;7.788;2023-05-02T16:15:36;13.10;1.00
11009;DHT22;5557;51.670;7.788;2023-05-02T16:18:03;13.00;1.00
11009;DHT22;5557;51.670;7.788;2023-05-02T16:20:30;13.10;1.00
11009;DHT22;5557;51.670;7.788;2023-05-02T16:23:02;13.10;1.00